Terminal Aerodrome Forecast
Issued by NWS

Home | Current Version | Previous Version | Text Only | Print | Product List | Glossary On
Versions: 1 2 3 4 5 6 7 8 9 10 11 12 13 14 15 16 17 18 19
000
FTUS42 KGSP 242321
TAFAND
TAF
KAND 242321Z 2500/2524 16005KT P6SM FEW050 SCT250
      TEMPO 2505/2509 BKN050
     FM250900 18006KT 4SM BR BKN045
     FM251100 19006KT 4SM BR BKN008
     FM251300 22008KT P6SM BKN050
     FM251400 24009G16KT P6SM BKN050
     FM251600 25013G23KT P6SM BKN140=

USA.gov is the U.S. government's official web portal to all federal, state and local government web resources and services.